Time,TemperatureF,DewpointF,PressureIn,WindDirection,WindDirectionDegrees,WindSpeedMPH,WindSpeedGustMPH,Humidity,HourlyPrecipIn,Conditions,Clouds,dailyrainin,SolarRadiationWatts/m^2,SoftwareType,DateUTC
2013-05-19 00:00:00,62.0,41.0,-100.00,ESE,112,0.0,-999.0,46,-99.99,,,-99.99,0.000000,,2013-05-19 04:00:00,
2013-05-19 00:42:00,62.0,41.0,-100.00,ESE,112,0.0,-999.0,46,-99.99,,,-99.99,0.000000,,2013-05-19 04:42:00,
2013-05-19 00:53:00,62.0,41.0,-100.00,ESE,112,0.0,-999.0,46,-99.99,,,-99.99,0.000000,,2013-05-19 04:53:00,
2013-05-19 01:00:00,59.0,43.0,-100.00,SE,135,0.0,-999.0,56,-99.99,,,-99.99,0.000000,,2013-05-19 05:00:00,
2013-05-19 01:42:00,59.0,43.0,-100.00,SE,135,0.0,-999.0,56,-99.99,,,-99.99,0.000000,,2013-05-19 05:42:00,
2013-05-19 01:52:00,59.0,43.0,-100.00,SE,135,0.0,-999.0,56,-99.99,,,-99.99,0.000000,,2013-05-19 05:52:00,
2013-05-19 02:00:00,55.0,44.0,-100.00,SSE,157,0.0,-999.0,65,-99.99,,,-99.99,0.000000,,2013-05-19 06:00:00,
2013-05-19 02:42:00,55.0,44.0,-100.00,SSE,157,0.0,-999.0,65,-99.99,,,-99.99,0.000000,,2013-05-19 06:42:00,
2013-05-19 02:52:00,55.0,44.0,-100.00,SSE,157,0.0,-999.0,65,-99.99,,,-99.99,0.000000,,2013-05-19 06:52:00,
2013-05-19 03:00:00,54.0,44.0,-100.00,NW,315,0.0,-999.0,70,-99.99,,,-99.99,0.000000,,2013-05-19 07:00:00,
2013-05-19 03:42:00,54.0,44.0,-100.00,NW,315,0.0,-999.0,70,-99.99,,,-99.99,0.000000,,2013-05-19 07:42:00,
2013-05-19 03:52:00,54.0,44.0,-100.00,NW,315,0.0,-999.0,70,-99.99,,,-99.99,0.000000,,2013-05-19 07:52:00,
2013-05-19 04:00:00,53.0,45.0,-100.00,WSW,247,0.0,-999.0,75,-99.99,,,-99.99,0.000000,,2013-05-19 08:00:00,
2013-05-19 04:42:00,53.0,45.0,-100.00,WSW,247,0.0,-999.0,75,-99.99,,,-99.99,0.000000,,2013-05-19 08:42:00,
2013-05-19 04:52:00,53.0,45.0,-100.00,WSW,247,0.0,-999.0,75,-99.99,,,-99.99,0.000000,,2013-05-19 08:52:00,
2013-05-19 05:00:00,52.0,45.0,-100.00,ESE,112,0.0,-999.0,77,-99.99,,,-99.99,0.000000,,2013-05-19 09:00:00,
2013-05-19 05:43:00,52.0,45.0,-100.00,ESE,112,0.0,-999.0,77,-99.99,,,-99.99,0.000000,,2013-05-19 09:43:00,
2013-05-19 05:53:00,52.0,45.0,-100.00,ESE,112,0.0,-999.0,77,-99.99,,,-99.99,0.000000,,2013-05-19 09:53:00,
2013-05-19 06:00:00,51.0,45.0,-100.00,WSW,247,0.0,-999.0,77,-99.99,,,-99.99,0.000000,,2013-05-19 10:00:00,
2013-05-19 06:42:00,51.0,45.0,-100.00,WSW,247,0.0,-999.0,77,-99.99,,,-99.99,0.000000,,2013-05-19 10:42:00,
2013-05-19 06:53:00,51.0,45.0,-100.00,WSW,247,0.0,-999.0,77,-99.99,,,-99.99,0.000000,,2013-05-19 10:53:00,
2013-05-19 07:00:00,51.0,44.0,-100.00,North,0,0.0,-999.0,78,-99.99,,,-99.99,12.760000,,2013-05-19 11:00:00,
2013-05-19 07:42:00,51.0,44.0,-100.00,North,0,0.0,-999.0,78,-99.99,,,-99.99,12.760000,,2013-05-19 11:42:00,
2013-05-19 07:53:00,51.0,44.0,-100.00,North,0,0.0,-999.0,78,-99.99,,,-99.99,12.760000,,2013-05-19 11:53:00,
2013-05-19 08:00:00,56.0,47.0,-100.00,ESE,112,0.0,-999.0,70,-99.99,,,-99.99,135.720001,,2013-05-19 12:00:00,
2013-05-19 08:42:00,56.0,47.0,-100.00,ESE,112,0.0,-999.0,70,-99.99,,,-99.99,135.720001,,2013-05-19 12:42:00,
2013-05-19 08:52:00,56.0,47.0,-100.00,ESE,112,0.0,-999.0,70,-99.99,,,-99.99,135.720001,,2013-05-19 12:52:00,
2013-05-19 09:00:00,63.0,48.0,-100.00,East,90,1.0,-999.0,59,-99.99,,,-99.99,296.959991,,2013-05-19 13:00:00,
2013-05-19 09:42:00,63.0,48.0,-100.00,East,90,1.0,-999.0,59,-99.99,,,-99.99,296.959991,,2013-05-19 13:42:00,
2013-05-19 09:52:00,63.0,48.0,-100.00,East,90,1.0,-999.0,59,-99.99,,,-99.99,296.959991,,2013-05-19 13:52:00,
2013-05-19 10:00:00,67.0,50.0,-100.00,SSE,157,0.0,-999.0,55,-99.99,,,-99.99,452.399994,,2013-05-19 14:00:00,
2013-05-19 10:42:00,67.0,50.0,-100.00,SSE,157,0.0,-999.0,55,-99.99,,,-99.99,452.399994,,2013-05-19 14:42:00,
2013-05-19 10:52:00,67.0,50.0,-100.00,SSE,157,0.0,-999.0,55,-99.99,,,-99.99,452.399994,,2013-05-19 14:52:00,
2013-05-19 11:00:00,72.0,54.0,-100.00,South,180,0.0,-999.0,53,-99.99,,,-99.99,592.760010,,2013-05-19 15:00:00,
2013-05-19 11:43:00,72.0,54.0,-100.00,South,180,0.0,-999.0,53,-99.99,,,-99.99,592.760010,,2013-05-19 15:43:00,
2013-05-19 11:53:00,72.0,54.0,-100.00,South,180,0.0,-999.0,53,-99.99,,,-99.99,592.760010,,2013-05-19 15:53:00,
2013-05-19 12:00:00,75.0,56.0,-100.00,South,180,0.0,-999.0,51,-99.99,,,-99.99,706.440002,,2013-05-19 16:00:00,
2013-05-19 12:42:00,75.0,56.0,-100.00,South,180,0.0,-999.0,51,-99.99,,,-99.99,706.440002,,2013-05-19 16:42:00,
2013-05-19 12:53:00,75.0,56.0,-100.00,South,180,0.0,-999.0,51,-99.99,,,-99.99,706.440002,,2013-05-19 16:53:00,
2013-05-19 13:00:00,77.0,57.0,-100.00,SSW,202,0.0,-999.0,50,-99.99,,,-99.99,776.039978,,2013-05-19 17:00:00,
2013-05-19 13:43:00,77.0,57.0,-100.00,SSW,202,0.0,-999.0,50,-99.99,,,-99.99,776.039978,,2013-05-19 17:43:00,
2013-05-19 13:52:00,77.0,57.0,-100.00,SSW,202,0.0,-999.0,50,-99.99,,,-99.99,776.039978,,2013-05-19 17:52:00,
2013-05-19 14:00:00,80.0,57.0,-100.00,SSW,202,0.0,-999.0,46,-99.99,,,-99.99,829.400024,,2013-05-19 18:00:00,
2013-05-19 14:43:00,80.0,57.0,-100.00,SSW,202,0.0,-999.0,46,-99.99,,,-99.99,829.400024,,2013-05-19 18:43:00,
2013-05-19 14:53:00,80.0,57.0,-100.00,SSW,202,0.0,-999.0,46,-99.99,,,-99.99,829.400024,,2013-05-19 18:53:00,
2013-05-19 15:00:00,80.0,58.0,-100.00,South,180,0.0,-999.0,46,-99.99,,,-99.99,593.919983,,2013-05-19 19:00:00,
2013-05-19 15:42:00,80.0,58.0,-100.00,South,180,0.0,-999.0,46,-99.99,,,-99.99,593.919983,,2013-05-19 19:42:00,
2013-05-19 15:52:00,80.0,58.0,-100.00,South,180,0.0,-999.0,46,-99.99,,,-99.99,593.919983,,2013-05-19 19:52:00,
2013-05-19 16:00:00,82.0,57.0,-100.00,SSW,202,0.0,-999.0,43,-99.99,,,-99.99,632.200012,,2013-05-19 20:00:00,
2013-05-19 16:42:00,82.0,57.0,-100.00,SSW,202,0.0,-999.0,43,-99.99,,,-99.99,632.200012,,2013-05-19 20:42:00,
2013-05-19 16:52:00,82.0,57.0,-100.00,SSW,202,0.0,-999.0,43,-99.99,,,-99.99,632.200012,,2013-05-19 20:52:00,
2013-05-19 17:00:00,83.0,56.0,-100.00,South,180,0.0,-999.0,39,-99.99,,,-99.99,582.320007,,2013-05-19 21:00:00,
2013-05-19 17:43:00,83.0,56.0,-100.00,South,180,0.0,-999.0,39,-99.99,,,-99.99,582.320007,,2013-05-19 21:43:00,
2013-05-19 17:53:00,83.0,56.0,-100.00,South,180,0.0,-999.0,39,-99.99,,,-99.99,582.320007,,2013-05-19 21:53:00,
2013-05-19 18:00:00,83.0,57.0,-100.00,SE,135,0.0,-999.0,40,-99.99,,,-99.99,439.640015,,2013-05-19 22:00:00,
2013-05-19 18:43:00,83.0,57.0,-100.00,SE,135,0.0,-999.0,40,-99.99,,,-99.99,439.640015,,2013-05-19 22:43:00,
2013-05-19 18:53:00,83.0,57.0,-100.00,SE,135,0.0,-999.0,40,-99.99,,,-99.99,439.640015,,2013-05-19 22:53:00,
2013-05-19 19:00:00,83.0,57.0,-100.00,South,180,0.0,-999.0,41,-99.99,,,-99.99,254.039993,,2013-05-19 23:00:00,
2013-05-19 19:42:00,83.0,57.0,-100.00,South,180,0.0,-999.0,41,-99.99,,,-99.99,254.039993,,2013-05-19 23:42:00,
2013-05-19 19:52:00,83.0,57.0,-100.00,South,180,0.0,-999.0,41,-99.99,,,-99.99,254.039993,,2013-05-19 23:52:00,
2013-05-19 20:00:00,81.0,57.0,-100.00,South,180,1.0,-999.0,43,-99.99,,,-99.99,131.080002,,2013-05-20 00:00:00,
2013-05-19 20:42:00,81.0,57.0,-100.00,South,180,1.0,-999.0,43,-99.99,,,-99.99,131.080002,,2013-05-20 00:42:00,
2013-05-19 20:52:00,81.0,57.0,-100.00,South,180,1.0,-999.0,43,-99.99,,,-99.99,131.080002,,2013-05-20 00:52:00,
2013-05-19 21:00:00,77.0,58.0,-100.00,South,180,1.0,-999.0,53,-99.99,,,-99.99,15.080000,,2013-05-20 01:00:00,
2013-05-19 21:42:00,77.0,58.0,-100.00,South,180,1.0,-999.0,53,-99.99,,,-99.99,15.080000,,2013-05-20 01:42:00,
2013-05-19 21:52:00,77.0,58.0,-100.00,South,180,1.0,-999.0,53,-99.99,,,-99.99,15.080000,,2013-05-20 01:52:00,
2013-05-19 22:00:00,73.0,59.0,-100.00,South,180,1.0,-999.0,61,-99.99,,,-99.99,0.000000,,2013-05-20 02:00:00,
2013-05-19 22:42:00,73.0,59.0,-100.00,South,180,1.0,-999.0,61,-99.99,,,-99.99,0.000000,,2013-05-20 02:42:00,
2013-05-19 22:52:00,73.0,59.0,-100.00,South,180,1.0,-999.0,61,-99.99,,,-99.99,0.000000,,2013-05-20 02:52:00,
2013-05-19 23:00:00,70.0,59.0,-100.00,South,180,0.0,-999.0,67,-99.99,,,-99.99,0.000000,,2013-05-20 03:00:00,
2013-05-19 23:43:00,70.0,59.0,-100.00,South,180,0.0,-999.0,67,-99.99,,,-99.99,0.000000,,2013-05-20 03:43:00,
2013-05-19 23:53:00,70.0,59.0,-100.00,South,180,0.0,-999.0,67,-99.99,,,-99.99,0.000000,,2013-05-20 03:53:00,